sensor_id;sensor_type;location;lat;lon;timestamp;P1;durP1;ratioP1;P2;durP2;ratioP2
19231;SDS011;9750;48.730;10.294;2023-10-09T00:02:05;13.63;;;5.43;;
19231;SDS011;9750;48.730;10.294;2023-10-09T00:04:35;12.50;;;4.80;;
19231;SDS011;9750;48.730;10.294;2023-10-09T00:07:08;12.57;;;5.80;;
19231;SDS011;9750;48.730;10.294;2023-10-09T00:09:36;15.03;;;5.60;;
19231;SDS011;9750;48.730;10.294;2023-10-09T00:12:12;14.43;;;5.57;;
19231;SDS011;9750;48.730;10.294;2023-10-09T00:14:41;12.37;;;5.50;;
19231;SDS011;9750;48.730;10.294;2023-10-09T00:17:13;13.73;;;5.17;;
19231;SDS011;9750;48.730;10.294;2023-10-09T00:19:44;16.43;;;5.50;;
19231;SDS011;9750;48.730;10.294;2023-10-09T00:25:38;13.50;;;6.63;;
19231;SDS011;9750;48.730;10.294;2023-10-09T00:28:12;13.67;;;6.73;;
19231;SDS011;9750;48.730;10.294;2023-10-09T00:30:41;11.13;;;6.07;;
19231;SDS011;9750;48.730;10.294;2023-10-09T00:33:08;11.67;;;6.30;;
19231;SDS011;9750;48.730;10.294;2023-10-09T00:35:36;12.97;;;6.20;;
19231;SDS011;9750;48.730;10.294;2023-10-09T00:38:12;11.83;;;5.73;;
19231;SDS011;9750;48.730;10.294;2023-10-09T00:40:51;19.47;;;5.93;;
19231;SDS011;9750;48.730;10.294;2023-10-09T00:43:35;12.40;;;5.63;;
19231;SDS011;9750;48.730;10.294;2023-10-09T00:46:03;12.27;;;5.60;;
19231;SDS011;9750;48.730;10.294;2023-10-09T00:48:37;14.87;;;5.60;;
19231;SDS011;9750;48.730;10.294;2023-10-09T00:51:06;12.97;;;5.40;;
19231;SDS011;9750;48.730;10.294;2023-10-09T00:53:44;13.33;;;5.50;;
19231;SDS011;9750;48.730;10.294;2023-10-09T00:56:17;12.63;;;5.43;;
19231;SDS011;9750;48.730;10.294;2023-10-09T00:58:54;13.13;;;5.50;;
19231;SDS011;9750;48.730;10.294;2023-10-09T01:01:32;15.13;;;5.83;;
19231;SDS011;9750;48.730;10.294;2023-10-09T01:04:02;15.30;;;5.93;;
19231;SDS011;9750;48.730;10.294;2023-10-09T01:06:36;15.87;;;5.40;;
19231;SDS011;9750;48.730;10.294;2023-10-09T01:09:09;14.73;;;5.97;;
19231;SDS011;9750;48.730;10.294;2023-10-09T01:11:39;15.17;;;5.97;;
19231;SDS011;9750;48.730;10.294;2023-10-09T01:14:14;11.97;;;5.40;;
19231;SDS011;9750;48.730;10.294;2023-10-09T01:16:41;15.70;;;6.23;;
19231;SDS011;9750;48.730;10.294;2023-10-09T01:19:09;15.20;;;5.27;;
19231;SDS011;9750;48.730;10.294;2023-10-09T01:21:49;13.00;;;5.57;;
19231;SDS011;9750;48.730;10.294;2023-10-09T01:24:18;13.23;;;5.47;;
19231;SDS011;9750;48.730;10.294;2023-10-09T01:26:47;9.23;;;5.20;;
19231;SDS011;9750;48.730;10.294;2023-10-09T01:29:19;13.77;;;5.63;;
19231;SDS011;9750;48.730;10.294;2023-10-09T01:31:52;13.67;;;5.80;;
19231;SDS011;9750;48.730;10.294;2023-10-09T01:34:26;14.80;;;5.73;;
19231;SDS011;9750;48.730;10.294;2023-10-09T01:37:04;16.17;;;5.37;;
19231;SDS011;9750;48.730;10.294;2023-10-09T01:39:38;16.43;;;5.77;;
19231;SDS011;9750;48.730;10.294;2023-10-09T01:42:07;16.37;;;5.77;;
19231;SDS011;9750;48.730;10.294;2023-10-09T01:44:35;18.03;;;6.67;;
19231;SDS011;9750;48.730;10.294;2023-10-09T01:47:08;18.03;;;5.83;;
19231;SDS011;9750;48.730;10.294;2023-10-09T01:49:39;16.83;;;5.80;;
19231;SDS011;9750;48.730;10.294;2023-10-09T01:52:09;15.60;;;6.00;;
19231;SDS011;9750;48.730;10.294;2023-10-09T01:54:42;11.97;;;6.27;;
19231;SDS011;9750;48.730;10.294;2023-10-09T01:57:12;12.43;;;8.53;;
19231;SDS011;9750;48.730;10.294;2023-10-09T01:59:40;9.33;;;6.80;;
19231;SDS011;9750;48.730;10.294;2023-10-09T02:02:12;12.17;;;6.90;;
19231;SDS011;9750;48.730;10.294;2023-10-09T02:04:52;9.37;;;5.70;;
19231;SDS011;9750;48.730;10.294;2023-10-09T02:07:28;8.63;;;6.27;;
19231;SDS011;9750;48.730;10.294;2023-10-09T02:10:07;8.63;;;6.50;;
19231;SDS011;9750;48.730;10.294;2023-10-09T02:12:46;12.90;;;6.50;;
19231;SDS011;9750;48.730;10.294;2023-10-09T02:15:17;10.20;;;6.40;;
19231;SDS011;9750;48.730;10.294;2023-10-09T02:18:05;10.43;;;6.60;;
19231;SDS011;9750;48.730;10.294;2023-10-09T02:20:42;11.93;;;6.00;;
19231;SDS011;9750;48.730;10.294;2023-10-09T02:23:11;16.03;;;6.43;;
19231;SDS011;9750;48.730;10.294;2023-10-09T02:25:41;16.47;;;6.10;;
19231;SDS011;9750;48.730;10.294;2023-10-09T02:28:09;15.93;;;5.93;;
19231;SDS011;9750;48.730;10.294;2023-10-09T02:30:42;21.47;;;11.93;;
19231;SDS011;9750;48.730;10.294;2023-10-09T02:33:12;19.63;;;10.97;;
19231;SDS011;9750;48.730;10.294;2023-10-09T02:35:46;11.83;;;7.37;;
19231;SDS011;9750;48.730;10.294;2023-10-09T02:38:16;10.20;;;6.47;;
19231;SDS011;9750;48.730;10.294;2023-10-09T02:40:44;10.00;;;6.33;;
19231;SDS011;9750;48.730;10.294;2023-10-09T02:43:25;11.80;;;6.50;;
19231;SDS011;9750;48.730;10.294;2023-10-09T02:45:53;13.90;;;6.67;;
19231;SDS011;9750;48.730;10.294;2023-10-09T02:48:20;13.13;;;5.87;;
19231;SDS011;9750;48.730;10.294;2023-10-09T02:50:51;17.47;;;6.97;;
19231;SDS011;9750;48.730;10.294;2023-10-09T02:53:19;16.63;;;6.03;;
19231;SDS011;9750;48.730;10.294;2023-10-09T02:55:55;22.67;;;7.37;;
19231;SDS011;9750;48.730;10.294;2023-10-09T02:58:37;15.90;;;6.20;;
19231;SDS011;9750;48.730;10.294;2023-10-09T03:01:09;19.47;;;8.43;;
19231;SDS011;9750;48.730;10.294;2023-10-09T03:03:38;18.13;;;8.37;;
19231;SDS011;9750;48.730;10.294;2023-10-09T03:06:10;15.80;;;7.47;;
19231;SDS011;9750;48.730;10.294;2023-10-09T03:08:53;18.03;;;6.67;;
19231;SDS011;9750;48.730;10.294;2023-10-09T03:11:22;16.63;;;6.63;;
19231;SDS011;9750;48.730;10.294;2023-10-09T03:13:52;21.87;;;6.73;;
19231;SDS011;9750;48.730;10.294;2023-10-09T03:16:20;21.97;;;6.17;;
19231;SDS011;9750;48.730;10.294;2023-10-09T03:18:47;19.17;;;6.43;;
19231;SDS011;9750;48.730;10.294;2023-10-09T03:21:16;15.33;;;5.87;;
19231;SDS011;9750;48.730;10.294;2023-10-09T03:23:44;20.40;;;5.93;;
19231;SDS011;9750;48.730;10.294;2023-10-09T03:26:14;19.47;;;6.80;;
19231;SDS011;9750;48.730;10.294;2023-10-09T03:28:45;20.67;;;6.97;;
19231;SDS011;9750;48.730;10.294;2023-10-09T03:31:12;16.53;;;8.07;;
19231;SDS011;9750;48.730;10.294;2023-10-09T03:33:39;15.07;;;7.60;;
19231;SDS011;9750;48.730;10.294;2023-10-09T03:36:06;17.33;;;7.77;;
19231;SDS011;9750;48.730;10.294;2023-10-09T03:38:35;15.50;;;7.07;;
19231;SDS011;9750;48.730;10.294;2023-10-09T03:41:03;13.07;;;6.13;;
19231;SDS011;9750;48.730;10.294;2023-10-09T03:43:32;19.60;;;6.00;;
19231;SDS011;9750;48.730;10.294;2023-10-09T03:46:05;16.33;;;5.70;;
19231;SDS011;9750;48.730;10.294;2023-10-09T03:48:45;17.57;;;5.73;;
19231;SDS011;9750;48.730;10.294;2023-10-09T03:51:13;17.37;;;5.70;;
19231;SDS011;9750;48.730;10.294;2023-10-09T03:53:46;20.97;;;6.30;;
19231;SDS011;9750;48.730;10.294;2023-10-09T03:56:14;21.13;;;5.80;;
19231;SDS011;9750;48.730;10.294;2023-10-09T03:58:43;16.97;;;6.43;;
19231;SDS011;9750;48.730;10.294;2023-10-09T04:01:13;18.73;;;5.80;;
19231;SDS011;9750;48.730;10.294;2023-10-09T04:03:48;13.13;;;6.00;;
19231;SDS011;9750;48.730;10.294;2023-10-09T04:06:20;16.80;;;6.10;;
19231;SDS011;9750;48.730;10.294;2023-10-09T04:08:48;21.53;;;6.07;;
19231;SDS011;9750;48.730;10.294;2023-10-09T04:11:16;15.43;;;5.47;;
19231;SDS011;9750;48.730;10.294;2023-10-09T04:13:48;15.20;;;5.67;;
19231;SDS011;9750;48.730;10.294;2023-10-09T04:16:18;15.30;;;5.80;;
19231;SDS011;9750;48.730;10.294;2023-10-09T04:19:00;14.07;;;5.57;;
19231;SDS011;9750;48.730;10.294;2023-10-09T04:21:36;22.30;;;5.43;;
19231;SDS011;9750;48.730;10.294;2023-10-09T04:24:03;17.93;;;5.57;;
19231;SDS011;9750;48.730;10.294;2023-10-09T04:26:48;15.90;;;5.50;;
19231;SDS011;9750;48.730;10.294;2023-10-09T04:29:21;18.43;;;5.63;;
19231;SDS011;9750;48.730;10.294;2023-10-09T04:32:05;19.70;;;6.10;;
19231;SDS011;9750;48.730;10.294;2023-10-09T04:34:41;21.37;;;6.70;;
19231;SDS011;9750;48.730;10.294;2023-10-09T04:37:13;18.27;;;5.60;;
19231;SDS011;9750;48.730;10.294;2023-10-09T04:39:49;17.00;;;6.67;;
19231;SDS011;9750;48.730;10.294;2023-10-09T04:42:36;16.83;;;6.83;;
19231;SDS011;9750;48.730;10.294;2023-10-09T04:45:03;14.93;;;6.23;;
19231;SDS011;9750;48.730;10.294;2023-10-09T04:48:14;20.50;;;6.10;;
19231;SDS011;9750;48.730;10.294;2023-10-09T04:50:57;20.20;;;9.23;;
19231;SDS011;9750;48.730;10.294;2023-10-09T04:53:45;17.80;;;7.27;;
19231;SDS011;9750;48.730;10.294;2023-10-09T04:56:13;16.97;;;7.03;;
19231;SDS011;9750;48.730;10.294;2023-10-09T04:58:42;17.70;;;6.40;;
19231;SDS011;9750;48.730;10.294;2023-10-09T05:01:11;16.70;;;5.53;;
19231;SDS011;9750;48.730;10.294;2023-10-09T05:03:42;18.50;;;5.50;;
19231;SDS011;9750;48.730;10.294;2023-10-09T05:06:09;18.03;;;5.43;;
19231;SDS011;9750;48.730;10.294;2023-10-09T05:08:54;20.23;;;5.73;;
19231;SDS011;9750;48.730;10.294;2023-10-09T05:11:33;18.80;;;5.80;;
19231;SDS011;9750;48.730;10.294;2023-10-09T05:14:18;13.47;;;4.97;;
19231;SDS011;9750;48.730;10.294;2023-10-09T05:16:52;16.83;;;5.90;;
19231;SDS011;9750;48.730;10.294;2023-10-09T05:19:21;17.03;;;5.53;;
19231;SDS011;9750;48.730;10.294;2023-10-09T05:22:19;17.70;;;5.53;;
19231;SDS011;9750;48.730;10.294;2023-10-09T05:24:56;16.70;;;6.00;;
19231;SDS011;9750;48.730;10.294;2023-10-09T05:27:23;18.40;;;5.47;;
19231;SDS011;9750;48.730;10.294;2023-10-09T05:30:05;15.17;;;5.37;;
19231;SDS011;9750;48.730;10.294;2023-10-09T05:32:49;16.13;;;5.53;;
19231;SDS011;9750;48.730;10.294;2023-10-09T05:35:21;17.43;;;5.77;;
19231;SDS011;9750;48.730;10.294;2023-10-09T05:38:05;19.53;;;5.30;;
19231;SDS011;9750;48.730;10.294;2023-10-09T05:40:48;21.63;;;6.10;;
19231;SDS011;9750;48.730;10.294;2023-10-09T05:43:19;16.20;;;5.10;;
19231;SDS011;9750;48.730;10.294;2023-10-09T05:46:01;22.07;;;5.30;;
19231;SDS011;9750;48.730;10.294;2023-10-09T05:48:34;16.10;;;5.60;;
19231;SDS011;9750;48.730;10.294;2023-10-09T05:51:21;17.17;;;6.00;;
19231;SDS011;9750;48.730;10.294;2023-10-09T05:54:05;21.37;;;6.07;;
19231;SDS011;9750;48.730;10.294;2023-10-09T05:56:49;16.80;;;5.67;;
19231;SDS011;9750;48.730;10.294;2023-10-09T05:59:45;19.33;;;5.53;;
19231;SDS011;9750;48.730;10.294;2023-10-09T06:02:29;17.13;;;5.20;;
19231;SDS011;9750;48.730;10.294;2023-10-09T06:05:14;17.27;;;6.10;;
19231;SDS011;9750;48.730;10.294;2023-10-09T06:07:57;17.40;;;5.57;;
19231;SDS011;9750;48.730;10.294;2023-10-09T06:10:34;17.03;;;5.53;;
19231;SDS011;9750;48.730;10.294;2023-10-09T06:13:07;15.03;;;5.23;;
19231;SDS011;9750;48.730;10.294;2023-10-09T06:15:55;13.00;;;5.73;;
19231;SDS011;9750;48.730;10.294;2023-10-09T06:18:40;14.83;;;5.50;;
19231;SDS011;9750;48.730;10.294;2023-10-09T06:21:19;13.77;;;5.27;;
19231;SDS011;9750;48.730;10.294;2023-10-09T06:24:07;20.27;;;5.87;;
19231;SDS011;9750;48.730;10.294;2023-10-09T06:26:44;15.67;;;5.57;;
19231;SDS011;9750;48.730;10.294;2023-10-09T06:29:37;16.00;;;5.17;;
19231;SDS011;9750;48.730;10.294;2023-10-09T06:32:16;17.37;;;5.17;;
19231;SDS011;9750;48.730;10.294;2023-10-09T06:34:58;16.50;;;5.43;;
19231;SDS011;9750;48.730;10.294;2023-10-09T06:37:39;14.33;;;5.43;;
19231;SDS011;9750;48.730;10.294;2023-10-09T06:40:28;16.20;;;5.13;;
19231;SDS011;9750;48.730;10.294;2023-10-09T06:43:13;13.53;;;5.20;;
19231;SDS011;9750;48.730;10.294;2023-10-09T06:45:42;18.07;;;5.73;;
19231;SDS011;9750;48.730;10.294;2023-10-09T06:48:20;16.30;;;5.00;;
19231;SDS011;9750;48.730;10.294;2023-10-09T06:51:05;15.53;;;5.50;;
19231;SDS011;9750;48.730;10.294;2023-10-09T06:53:38;16.60;;;5.63;;
19231;SDS011;9750;48.730;10.294;2023-10-09T06:56:24;16.97;;;6.20;;
19231;SDS011;9750;48.730;10.294;2023-10-09T06:59:13;15.93;;;5.47;;
19231;SDS011;9750;48.730;10.294;2023-10-09T07:01:46;19.00;;;5.27;;
19231;SDS011;9750;48.730;10.294;2023-10-09T07:04:34;18.30;;;5.53;;
19231;SDS011;9750;48.730;10.294;2023-10-09T07:07:12;16.90;;;5.53;;
19231;SDS011;9750;48.730;10.294;2023-10-09T07:09:42;18.03;;;5.20;;
19231;SDS011;9750;48.730;10.294;2023-10-09T07:12:09;17.47;;;6.13;;
19231;SDS011;9750;48.730;10.294;2023-10-09T07:14:45;16.17;;;5.53;;
19231;SDS011;9750;48.730;10.294;2023-10-09T07:17:44;19.87;;;5.80;;
19231;SDS011;9750;48.730;10.294;2023-10-09T07:20:11;18.77;;;6.20;;
19231;SDS011;9750;48.730;10.294;2023-10-09T07:23:01;20.83;;;5.93;;
19231;SDS011;9750;48.730;10.294;2023-10-09T07:25:40;20.57;;;6.10;;
19231;SDS011;9750;48.730;10.294;2023-10-09T07:28:21;19.17;;;6.60;;
19231;SDS011;9750;48.730;10.294;2023-10-09T07:31:08;17.70;;;5.13;;
19231;SDS011;9750;48.730;10.294;2023-10-09T07:33:49;20.00;;;5.67;;
19231;SDS011;9750;48.730;10.294;2023-10-09T07:36:22;20.03;;;5.57;;
19231;SDS011;9750;48.730;10.294;2023-10-09T07:39:03;15.87;;;5.50;;
19231;SDS011;9750;48.730;10.294;2023-10-09T07:41:39;18.10;;;5.60;;
19231;SDS011;9750;48.730;10.294;2023-10-09T07:44:12;26.00;;;5.80;;
19231;SDS011;9750;48.730;10.294;2023-10-09T07:46:56;19.63;;;5.43;;
19231;SDS011;9750;48.730;10.294;2023-10-09T07:49:37;16.53;;;5.30;;
19231;SDS011;9750;48.730;10.294;2023-10-09T07:55:40;15.67;;;5.57;;
19231;SDS011;9750;48.730;10.294;2023-10-09T07:58:14;20.67;;;5.47;;
19231;SDS011;9750;48.730;10.294;2023-10-09T08:00:43;14.03;;;4.93;;
19231;SDS011;9750;48.730;10.294;2023-10-09T08:03:24;16.87;;;5.53;;
19231;SDS011;9750;48.730;10.294;2023-10-09T08:05:54;20.00;;;5.00;;
19231;SDS011;9750;48.730;10.294;2023-10-09T08:08:32;16.97;;;5.13;;
19231;SDS011;9750;48.730;10.294;2023-10-09T08:11:06;16.73;;;5.43;;
19231;SDS011;9750;48.730;10.294;2023-10-09T08:13:51;19.10;;;5.20;;
19231;SDS011;9750;48.730;10.294;2023-10-09T08:16:27;19.37;;;4.90;;
19231;SDS011;9750;48.730;10.294;2023-10-09T08:19:02;14.53;;;5.13;;
19231;SDS011;9750;48.730;10.294;2023-10-09T08:21:52;15.93;;;5.10;;
19231;SDS011;9750;48.730;10.294;2023-10-09T08:24:33;14.33;;;4.70;;
19231;SDS011;9750;48.730;10.294;2023-10-09T08:27:06;17.93;;;5.83;;
19231;SDS011;9750;48.730;10.294;2023-10-09T08:29:51;13.57;;;5.03;;
19231;SDS011;9750;48.730;10.294;2023-10-09T08:32:39;15.93;;;5.63;;
19231;SDS011;9750;48.730;10.294;2023-10-09T08:35:06;18.70;;;5.07;;
19231;SDS011;9750;48.730;10.294;2023-10-09T08:37:54;19.43;;;5.20;;
19231;SDS011;9750;48.730;10.294;2023-10-09T08:40:27;21.57;;;5.70;;
19231;SDS011;9750;48.730;10.294;2023-10-09T08:43:00;16.37;;;5.07;;
19231;SDS011;9750;48.730;10.294;2023-10-09T08:45:35;16.03;;;4.37;;
19231;SDS011;9750;48.730;10.294;2023-10-09T08:48:06;15.77;;;5.13;;
19231;SDS011;9750;48.730;10.294;2023-10-09T08:50:40;17.70;;;5.07;;
19231;SDS011;9750;48.730;10.294;2023-10-09T08:53:09;20.73;;;6.10;;
19231;SDS011;9750;48.730;10.294;2023-10-09T08:55:37;20.55;;;5.85;;
19231;SDS011;9750;48.730;10.294;2023-10-09T08:58:06;23.60;;;6.13;;
19231;SDS011;9750;48.730;10.294;2023-10-09T09:00:43;19.67;;;5.57;;
19231;SDS011;9750;48.730;10.294;2023-10-09T09:03:14;15.47;;;5.50;;
19231;SDS011;9750;48.730;10.294;2023-10-09T09:05:44;24.20;;;5.60;;
19231;SDS011;9750;48.730;10.294;2023-10-09T09:08:21;19.40;;;5.30;;
19231;SDS011;9750;48.730;10.294;2023-10-09T09:10:56;18.60;;;5.43;;
19231;SDS011;9750;48.730;10.294;2023-10-09T09:13:36;16.55;;;4.72;;
19231;SDS011;9750;48.730;10.294;2023-10-09T09:16:12;18.00;;;5.82;;
19231;SDS011;9750;48.730;10.294;2023-10-09T09:18:53;21.13;;;5.10;;
19231;SDS011;9750;48.730;10.294;2023-10-09T09:21:26;23.10;;;5.88;;
19231;SDS011;9750;48.730;10.294;2023-10-09T09:23:54;17.48;;;5.18;;
19231;SDS011;9750;48.730;10.294;2023-10-09T09:26:35;24.20;;;5.72;;
19231;SDS011;9750;48.730;10.294;2023-10-09T09:29:10;21.90;;;5.65;;
19231;SDS011;9750;48.730;10.294;2023-10-09T09:31:38;21.52;;;5.63;;
19231;SDS011;9750;48.730;10.294;2023-10-09T09:34:18;22.90;;;5.30;;
19231;SDS011;9750;48.730;10.294;2023-10-09T09:36:51;17.08;;;5.22;;
19231;SDS011;9750;48.730;10.294;2023-10-09T09:39:23;20.80;;;6.18;;
19231;SDS011;9750;48.730;10.294;2023-10-09T09:41:55;21.73;;;5.45;;
19231;SDS011;9750;48.730;10.294;2023-10-09T09:44:30;17.33;;;5.07;;
19231;SDS011;9750;48.730;10.294;2023-10-09T09:46:59;18.02;;;5.60;;
19231;SDS011;9750;48.730;10.294;2023-10-09T09:49:28;21.08;;;6.00;;
19231;SDS011;9750;48.730;10.294;2023-10-09T09:52:00;24.23;;;6.43;;
19231;SDS011;9750;48.730;10.294;2023-10-09T09:54:35;17.83;;;5.47;;
19231;SDS011;9750;48.730;10.294;2023-10-09T09:57:03;19.42;;;6.30;;
19231;SDS011;9750;48.730;10.294;2023-10-09T09:59:37;17.88;;;5.05;;
19231;SDS011;9750;48.730;10.294;2023-10-09T10:02:18;18.02;;;5.50;;
19231;SDS011;9750;48.730;10.294;2023-10-09T10:04:53;17.52;;;5.82;;
19231;SDS011;9750;48.730;10.294;2023-10-09T10:07:23;21.23;;;5.72;;
19231;SDS011;9750;48.730;10.294;2023-10-09T10:09:54;24.98;;;5.32;;
19231;SDS011;9750;48.730;10.294;2023-10-09T10:12:49;19.08;;;5.63;;
19231;SDS011;9750;48.730;10.294;2023-10-09T10:18:34;19.33;;;5.30;;
19231;SDS011;9750;48.730;10.294;2023-10-09T10:21:22;16.77;;;4.93;;
19231;SDS011;9750;48.730;10.294;2023-10-09T10:24:04;18.52;;;5.43;;
19231;SDS011;9750;48.730;10.294;2023-10-09T10:29:56;18.98;;;5.55;;
19231;SDS011;9750;48.730;10.294;2023-10-09T10:33:09;20.92;;;5.22;;
19231;SDS011;9750;48.730;10.294;2023-10-09T10:35:41;19.65;;;5.45;;
19231;SDS011;9750;48.730;10.294;2023-10-09T10:38:26;26.48;;;5.75;;
19231;SDS011;9750;48.730;10.294;2023-10-09T10:41:26;16.80;;;5.13;;
19231;SDS011;9750;48.730;10.294;2023-10-09T10:43:56;19.60;;;5.72;;
19231;SDS011;9750;48.730;10.294;2023-10-09T10:46:40;14.07;;;5.78;;
19231;SDS011;9750;48.730;10.294;2023-10-09T10:49:09;14.60;;;5.22;;
19231;SDS011;9750;48.730;10.294;2023-10-09T10:55:11;16.90;;;4.70;;
19231;SDS011;9750;48.730;10.294;2023-10-09T10:58:15;18.35;;;5.20;;
19231;SDS011;9750;48.730;10.294;2023-10-09T11:00:52;22.63;;;5.60;;
19231;SDS011;9750;48.730;10.294;2023-10-09T11:03:37;16.15;;;4.90;;
19231;SDS011;9750;48.730;10.294;2023-10-09T11:06:23;14.55;;;4.80;;
19231;SDS011;9750;48.730;10.294;2023-10-09T11:09:01;18.02;;;5.80;;
19231;SDS011;9750;48.730;10.294;2023-10-09T11:11:44;18.17;;;5.60;;
19231;SDS011;9750;48.730;10.294;2023-10-09T11:14:12;17.23;;;5.07;;
19231;SDS011;9750;48.730;10.294;2023-10-09T11:16:40;17.88;;;6.07;;
19231;SDS011;9750;48.730;10.294;2023-10-09T11:19:19;16.00;;;4.75;;
19231;SDS011;9750;48.730;10.294;2023-10-09T11:21:56;12.60;;;4.95;;
19231;SDS011;9750;48.730;10.294;2023-10-09T11:24:46;13.82;;;4.85;;
19231;SDS011;9750;48.730;10.294;2023-10-09T11:27:28;13.52;;;5.07;;
19231;SDS011;9750;48.730;10.294;2023-10-09T11:29:57;15.52;;;4.68;;
19231;SDS011;9750;48.730;10.294;2023-10-09T11:32:39;14.35;;;4.68;;
19231;SDS011;9750;48.730;10.294;2023-10-09T11:35:10;11.90;;;4.60;;
19231;SDS011;9750;48.730;10.294;2023-10-09T11:37:40;13.18;;;4.47;;
19231;SDS011;9750;48.730;10.294;2023-10-09T11:42:59;11.40;;;4.57;;
19231;SDS011;9750;48.730;10.294;2023-10-09T11:45:28;10.43;;;4.82;;
19231;SDS011;9750;48.730;10.294;2023-10-09T11:48:15;12.75;;;5.07;;
19231;SDS011;9750;48.730;10.294;2023-10-09T11:50:46;13.68;;;5.07;;
19231;SDS011;9750;48.730;10.294;2023-10-09T11:53:19;15.80;;;5.05;;
19231;SDS011;9750;48.730;10.294;2023-10-09T11:55:58;12.00;;;4.15;;
19231;SDS011;9750;48.730;10.294;2023-10-09T11:58:28;13.93;;;4.93;;
19231;SDS011;9750;48.730;10.294;2023-10-09T12:00:57;16.67;;;4.35;;
19231;SDS011;9750;48.730;10.294;2023-10-09T12:03:28;17.73;;;5.13;;
19231;SDS011;9750;48.730;10.294;2023-10-09T12:05:56;15.75;;;4.50;;
19231;SDS011;9750;48.730;10.294;2023-10-09T12:08:29;15.38;;;4.38;;
19231;SDS011;9750;48.730;10.294;2023-10-09T12:10:57;13.25;;;4.90;;
19231;SDS011;9750;48.730;10.294;2023-10-09T12:13:29;13.65;;;5.03;;
19231;SDS011;9750;48.730;10.294;2023-10-09T12:15:56;13.20;;;4.90;;
19231;SDS011;9750;48.730;10.294;2023-10-09T12:18:24;11.50;;;4.80;;
19231;SDS011;9750;48.730;10.294;2023-10-09T12:20:53;14.18;;;4.47;;
19231;SDS011;9750;48.730;10.294;2023-10-09T12:23:27;12.10;;;4.47;;
19231;SDS011;9750;48.730;10.294;2023-10-09T12:25:58;14.77;;;4.80;;
19231;SDS011;9750;48.730;10.294;2023-10-09T12:28:25;13.40;;;4.53;;
19231;SDS011;9750;48.730;10.294;2023-10-09T12:30:55;16.90;;;4.47;;
19231;SDS011;9750;48.730;10.294;2023-10-09T12:33:26;17.85;;;4.95;;
19231;SDS011;9750;48.730;10.294;2023-10-09T12:35:55;14.15;;;5.55;;
19231;SDS011;9750;48.730;10.294;2023-10-09T12:38:25;14.05;;;5.47;;
19231;SDS011;9750;48.730;10.294;2023-10-09T12:41:00;18.50;;;5.60;;
19231;SDS011;9750;48.730;10.294;2023-10-09T12:43:33;20.67;;;5.65;;
19231;SDS011;9750;48.730;10.294;2023-10-09T12:46:05;19.13;;;5.90;;
19231;SDS011;9750;48.730;10.294;2023-10-09T12:48:33;16.95;;;5.78;;
19231;SDS011;9750;48.730;10.294;2023-10-09T12:51:01;14.02;;;5.45;;
19231;SDS011;9750;48.730;10.294;2023-10-09T12:53:31;19.17;;;5.65;;
19231;SDS011;9750;48.730;10.294;2023-10-09T12:55:58;13.57;;;4.90;;
19231;SDS011;9750;48.730;10.294;2023-10-09T12:58:26;17.90;;;6.22;;
19231;SDS011;9750;48.730;10.294;2023-10-09T13:00:53;19.90;;;6.35;;
19231;SDS011;9750;48.730;10.294;2023-10-09T13:03:22;13.20;;;5.43;;
19231;SDS011;9750;48.730;10.294;2023-10-09T13:05:53;18.48;;;5.75;;
19231;SDS011;9750;48.730;10.294;2023-10-09T13:08:22;17.15;;;6.25;;
19231;SDS011;9750;48.730;10.294;2023-10-09T13:10:56;19.52;;;6.15;;
19231;SDS011;9750;48.730;10.294;2023-10-09T13:13:35;13.27;;;5.97;;
19231;SDS011;9750;48.730;10.294;2023-10-09T13:16:09;15.50;;;5.35;;
19231;SDS011;9750;48.730;10.294;2023-10-09T13:18:41;14.93;;;6.15;;
19231;SDS011;9750;48.730;10.294;2023-10-09T13:21:15;19.25;;;6.22;;
19231;SDS011;9750;48.730;10.294;2023-10-09T13:23:42;15.23;;;5.97;;
19231;SDS011;9750;48.730;10.294;2023-10-09T13:26:12;16.98;;;6.45;;
19231;SDS011;9750;48.730;10.294;2023-10-09T13:28:49;13.70;;;5.60;;
19231;SDS011;9750;48.730;10.294;2023-10-09T13:31:17;16.88;;;6.65;;
19231;SDS011;9750;48.730;10.294;2023-10-09T13:33:47;11.52;;;5.63;;
19231;SDS011;9750;48.730;10.294;2023-10-09T13:36:19;14.73;;;5.75;;
19231;SDS011;9750;48.730;10.294;2023-10-09T13:38:54;12.60;;;6.55;;
19231;SDS011;9750;48.730;10.294;2023-10-09T13:41:21;27.02;;;11.63;;
19231;SDS011;9750;48.730;10.294;2023-10-09T13:43:53;15.88;;;6.45;;
19231;SDS011;9750;48.730;10.294;2023-10-09T13:46:22;12.20;;;6.20;;
19231;SDS011;9750;48.730;10.294;2023-10-09T13:48:51;13.10;;;5.78;;
19231;SDS011;9750;48.730;10.294;2023-10-09T13:51:19;13.43;;;5.80;;
19231;SDS011;9750;48.730;10.294;2023-10-09T13:53:49;15.27;;;5.88;;
19231;SDS011;9750;48.730;10.294;2023-10-09T13:56:16;13.65;;;5.85;;
19231;SDS011;9750;48.730;10.294;2023-10-09T13:58:45;15.55;;;6.22;;
19231;SDS011;9750;48.730;10.294;2023-10-09T14:01:14;14.90;;;6.35;;
19231;SDS011;9750;48.730;10.294;2023-10-09T14:03:56;19.15;;;6.68;;
19231;SDS011;9750;48.730;10.294;2023-10-09T14:06:26;15.07;;;6.18;;
19231;SDS011;9750;48.730;10.294;2023-10-09T14:08:57;15.38;;;7.07;;
19231;SDS011;9750;48.730;10.294;2023-10-09T14:11:25;21.25;;;7.00;;
19231;SDS011;9750;48.730;10.294;2023-10-09T14:13:53;17.95;;;6.88;;
19231;SDS011;9750;48.730;10.294;2023-10-09T14:16:20;16.27;;;6.47;;
19231;SDS011;9750;48.730;10.294;2023-10-09T14:18:53;16.15;;;6.82;;
19231;SDS011;9750;48.730;10.294;2023-10-09T14:21:24;13.73;;;6.70;;
19231;SDS011;9750;48.730;10.294;2023-10-09T14:23:53;15.27;;;6.35;;
19231;SDS011;9750;48.730;10.294;2023-10-09T14:26:23;12.15;;;6.53;;
19231;SDS011;9750;48.730;10.294;2023-10-09T14:28:51;17.60;;;6.78;;
19231;SDS011;9750;48.730;10.294;2023-10-09T14:31:21;15.05;;;6.65;;
19231;SDS011;9750;48.730;10.294;2023-10-09T14:33:53;14.00;;;6.40;;
19231;SDS011;9750;48.730;10.294;2023-10-09T14:36:23;14.23;;;6.38;;
19231;SDS011;9750;48.730;10.294;2023-10-09T14:38:58;17.73;;;6.57;;
19231;SDS011;9750;48.730;10.294;2023-10-09T14:44:19;17.83;;;6.47;;
19231;SDS011;9750;48.730;10.294;2023-10-09T14:46:48;15.48;;;6.28;;
19231;SDS011;9750;48.730;10.294;2023-10-09T14:49:17;14.00;;;5.97;;
19231;SDS011;9750;48.730;10.294;2023-10-09T14:51:46;16.75;;;6.57;;
19231;SDS011;9750;48.730;10.294;2023-10-09T14:54:14;15.50;;;6.95;;
19231;SDS011;9750;48.730;10.294;2023-10-09T14:56:43;16.73;;;7.10;;
19231;SDS011;9750;48.730;10.294;2023-10-09T14:59:11;12.18;;;6.35;;
19231;SDS011;9750;48.730;10.294;2023-10-09T15:01:39;13.15;;;5.95;;
19231;SDS011;9750;48.730;10.294;2023-10-09T15:04:06;16.70;;;6.22;;
19231;SDS011;9750;48.730;10.294;2023-10-09T15:06:41;18.65;;;6.78;;
19231;SDS011;9750;48.730;10.294;2023-10-09T15:09:08;12.93;;;6.22;;
19231;SDS011;9750;48.730;10.294;2023-10-09T15:11:52;17.60;;;6.45;;
19231;SDS011;9750;48.730;10.294;2023-10-09T15:14:43;17.38;;;5.88;;
19231;SDS011;9750;48.730;10.294;2023-10-09T15:17:14;16.35;;;6.68;;
19231;SDS011;9750;48.730;10.294;2023-10-09T15:19:41;17.90;;;6.07;;
19231;SDS011;9750;48.730;10.294;2023-10-09T15:22:21;15.27;;;5.82;;
19231;SDS011;9750;48.730;10.294;2023-10-09T15:25:00;16.35;;;6.57;;
19231;SDS011;9750;48.730;10.294;2023-10-09T15:27:28;12.13;;;5.88;;
19231;SDS011;9750;48.730;10.294;2023-10-09T15:29:56;13.50;;;6.15;;
19231;SDS011;9750;48.730;10.294;2023-10-09T15:35:15;15.63;;;6.05;;
19231;SDS011;9750;48.730;10.294;2023-10-09T15:37:45;15.13;;;6.10;;
19231;SDS011;9750;48.730;10.294;2023-10-09T15:40:12;19.92;;;6.80;;
19231;SDS011;9750;48.730;10.294;2023-10-09T15:46:01;12.57;;;5.55;;
19231;SDS011;9750;48.730;10.294;2023-10-09T15:48:28;19.55;;;5.65;;